Time;durP1;ratioP1;P1;durP2;ratioP2;P2;SDS_P1;SDS_P2;PMS_P1;PMS_P2;Temp;Humidity;BMP_temperature;BMP_pressure;BME280_temperature;BME280_humidity;BME280_pressure;Samples;Min_cycle;Max_cycle;Signal;HPM_P1;HPM_P2
2022/08/09 00:00:08;;;;;;;;;;;;;;;26.06;51.57;100312.50;7314020;19;130013;-34
2022/08/09 00:02:33;;;;;;;;;;;;;;;26.37;57.15;100317.22;7315673;19;130807;-34
2022/08/09 00:04:58;;;;;;;;;;;;;;;26.59;57.22;100303.50;7314851;19;129284;-36
2022/08/09 00:07:24;;;;;;;;;;;;;;;26.72;56.76;100311.06;7315014;19;129186;-33
2022/08/09 00:09:49;;;;;;;;;;;;;;;26.77;57.20;100311.41;7313619;19;129293;-38
2022/08/09 00:12:14;;;;;;;;;;;;;;;26.81;57.44;100310.94;7315231;19;129375;-34
2022/08/09 00:14:39;;;;;;;;;;;;;;;26.84;57.19;100318.53;7314118;19;130370;-33
2022/08/09 00:17:05;;;;;;;;;;;;;;;26.86;57.04;100319.22;7314357;19;129219;-34
2022/08/09 00:19:30;;;;;;;;;;;;;;;26.87;57.06;100320.88;7313911;19;128940;-34
2022/08/09 00:21:56;;;;;;;;;;;;;;;26.86;56.92;100319.22;7315241;19;129250;-34
2022/08/09 00:24:21;;;;;;;;;;;;;;;26.85;56.79;100311.47;7313915;19;129651;-34
2022/08/09 00:26:47;;;;;;;;;;;;;;;26.87;57.23;100318.22;7313930;19;129179;-37
2022/08/09 00:29:13;;;;;;;;;;;;;;;26.87;57.58;100318.22;7314496;19;129546;-34
2022/08/09 00:31:38;;;;;;;;;;;;;;;26.89;57.09;100318.09;7311918;19;129529;-35
2022/08/09 00:34:03;;;;;;;;;;;;;;;26.80;57.08;100301.38;7314006;19;129194;-31
2022/08/09 00:36:28;;;;;;;;;;;;;;;26.89;57.86;100321.53;7311468;19;129439;-32
2022/08/09 00:38:54;;;;;;;;;;;;;;;26.89;56.96;100316.25;7314301;19;129156;-41
2022/08/09 00:41:21;;;;;;;;;;;;;;;26.90;57.49;100312.66;7311445;19;129451;-34
2022/08/09 00:43:47;;;;;;;;;;;;;;;26.90;57.75;100311.81;7313835;19;129313;-38
2022/08/09 00:46:12;;;;;;;;;;;;;;;26.86;57.52;100315.75;7314303;19;128838;-39
2022/08/09 00:48:37;;;;;;;;;;;;;;;26.14;51.57;100308.13;7313689;19;128762;-34
2022/08/09 00:51:04;;;;;;;;;;;;;;;26.20;56.48;100306.66;7311997;19;129338;-35
2022/08/09 00:53:30;;;;;;;;;;;;;;;26.57;56.79;100313.41;7313714;19;130398;-36
2022/08/09 00:55:55;;;;;;;;;;;;;;;26.71;57.26;100318.13;7312027;19;129306;-35
2022/08/09 00:58:20;;;;;;;;;;;;;;;26.82;57.24;100319.69;7313318;19;128708;-38
2022/08/09 01:00:49;;;;;;;;;;;;;;;26.83;57.17;100316.91;7311825;19;128997;-33
2022/08/09 01:03:20;;;;;;;;;;;;;;;26.87;57.21;100318.22;7312943;19;129102;-38
2022/08/09 01:06:03;;;;;;;;;;;;;;;26.89;56.65;100321.53;7314014;19;129407;-34
2022/08/09 01:08:28;;;;;;;;;;;;;;;26.89;57.18;100324.19;7312540;19;128942;-35
2022/08/09 01:11:06;;;;;;;;;;;;;;;26.89;57.20;100321.53;7311898;19;129027;-34
2022/08/09 01:13:37;;;;;;;;;;;;;;;26.82;57.31;100306.50;7313355;19;129991;-37
2022/08/09 01:16:03;;;;;;;;;;;;;;;26.93;57.23;100325.53;7312090;19;129205;-35
2022/08/09 01:18:29;;;;;;;;;;;;;;;26.93;57.08;100317.63;7311993;19;128964;-33
2022/08/09 01:21:06;;;;;;;;;;;;;;;26.94;57.49;100324.53;7311130;19;129443;-38
2022/08/09 01:23:37;;;;;;;;;;;;;;;26.96;57.31;100328.84;7313857;19;130320;-33
2022/08/09 01:26:08;;;;;;;;;;;;;;;26.94;57.23;100327.19;7313972;19;128996;-33
2022/08/09 01:28:34;;;;;;;;;;;;;;;26.94;57.88;100324.53;7311893;19;129548;-35
2022/08/09 01:31:02;;;;;;;;;;;;;;;26.94;57.06;100327.19;7310871;19;129027;-37
2022/08/09 01:33:33;;;;;;;;;;;;;;;26.96;57.46;100331.50;7313096;19;129055;-39
2022/08/09 01:36:00;;;;;;;;;;;;;;;26.42;52.20;100329.94;7313283;19;129091;-33
2022/08/09 01:38:27;;;;;;;;;;;;;;;26.09;51.58;100328.00;7311624;19;128801;-37
2022/08/09 01:40:57;;;;;;;;;;;;;;;26.35;56.90;100313.88;7310384;19;129069;-36
2022/08/09 01:43:23;;;;;;;;;;;;;;;26.65;57.18;100321.41;7313390;19;130641;-33
2022/08/09 01:45:48;;;;;;;;;;;;;;;26.76;56.98;100330.84;7314231;19;128876;-36
2022/08/09 01:48:16;;;;;;;;;;;;;;;26.82;57.13;100324.97;7312383;19;129108;-39
2022/08/09 01:50:43;;;;;;;;;;;;;;;26.85;56.96;100325.50;7310394;19;129695;-33
2022/08/09 01:53:09;;;;;;;;;;;;;;;26.88;57.05;100325.19;7312610;19;129607;-36
2022/08/09 01:55:35;;;;;;;;;;;;;;;26.90;57.11;100331.13;7312398;19;129001;-36
2022/08/09 01:58:02;;;;;;;;;;;;;;;26.92;56.71;100325.69;7311851;19;128822;-37
2022/08/09 02:00:28;;;;;;;;;;;;;;;26.92;57.02;100331.78;7309288;19;129256;-32
2022/08/09 02:02:54;;;;;;;;;;;;;;;26.94;56.69;100323.69;7311830;19;129650;-32
2022/08/09 02:05:21;;;;;;;;;;;;;;;26.94;56.83;100329.81;7312792;19;129380;-39
2022/08/09 02:07:56;;;;;;;;;;;;;;;26.94;56.82;100336.91;7309407;19;128889;-37
2022/08/09 02:10:28;;;;;;;;;;;;;;;26.93;57.43;100333.44;7310098;19;131360;-31
2022/08/09 02:12:54;;;;;;;;;;;;;;;26.94;57.39;100335.09;7311482;19;130000;-33
2022/08/09 02:15:22;;;;;;;;;;;;;;;26.86;56.92;100324.50;7310689;19;129091;-40
2022/08/09 02:17:48;;;;;;;;;;;;;;;26.97;57.44;100338.41;7311586;19;129036;-36
2022/08/09 02:20:14;;;;;;;;;;;;;;;26.97;57.07;100343.69;7309861;19;129049;-32
2022/08/09 02:22:42;;;;;;;;;;;;;;;26.97;57.49;100343.69;7315898;19;129231;-35
2022/08/09 02:25:22;;;;;;;;;;;;;;;26.43;52.68;100350.88;7318149;19;129101;-39
2022/08/09 02:27:57;;;;;;;;;;;;;;;26.10;51.38;100351.56;7318181;19;128972;-37
2022/08/09 02:30:23;;;;;;;;;;;;;;;26.50;57.04;100351.91;7317460;19;128984;-35
2022/08/09 02:32:49;;;;;;;;;;;;;;;26.68;56.98;100350.09;7317761;19;129145;-34
2022/08/09 02:35:19;;;;;;;;;;;;;;;26.78;56.59;100353.47;7317624;19;129260;-35
2022/08/09 02:37:45;;;;;;;;;;;;;;;26.85;57.19;100351.88;7317945;19;129443;-38
2022/08/09 02:40:13;;;;;;;;;;;;;;;26.88;56.92;100351.56;7317226;19;129067;-33
2022/08/09 02:42:40;;;;;;;;;;;;;;;26.85;57.17;100336.06;7317390;19;129622;-35
2022/08/09 02:45:16;;;;;;;;;;;;;;;26.86;57.12;100337.69;7317296;19;128744;-34
2022/08/09 02:47:42;;;;;;;;;;;;;;;26.94;56.98;100350.94;7317046;19;128930;-37
2022/08/09 02:50:10;;;;;;;;;;;;;;;26.96;56.59;100352.59;7316708;19;130395;-38
2022/08/09 02:52:40;;;;;;;;;;;;;;;26.93;57.14;100351.94;7317943;19;129262;-35
2022/08/09 02:55:07;;;;;;;;;;;;;;;26.94;57.00;100345.66;7316811;19;128858;-35
2022/08/09 02:57:33;;;;;;;;;;;;;;;26.94;57.25;100356.22;7316708;19;129406;-34
2022/08/09 02:59:59;;;;;;;;;;;;;;;26.86;57.39;100337.69;7316463;19;130615;-37
2022/08/09 03:02:25;;;;;;;;;;;;;;;26.97;57.57;100354.25;7317651;19;130189;-35
2022/08/09 03:04:52;;;;;;;;;;;;;;;26.97;57.68;100356.88;7316276;19;128829;-36
2022/08/09 03:07:19;;;;;;;;;;;;;;;26.97;57.51;100356.88;7316318;19;129366;-33
2022/08/09 03:09:45;;;;;;;;;;;;;;;26.97;57.70;100349.81;7312884;19;131995;-42
2022/08/09 03:12:11;;;;;;;;;;;;;;;26.96;57.53;100348.13;7312468;19;129416;-37
2022/08/09 03:14:38;;;;;;;;;;;;;;;26.16;51.76;100342.22;7316000;19;129544;-36
2022/08/09 03:17:03;;;;;;;;;;;;;;;26.22;55.48;100354.78;7314695;19;129328;-31
2022/08/09 03:19:30;;;;;;;;;;;;;;;26.55;56.41;100349.66;7315376;19;129150;-39
2022/08/09 03:21:56;;;;;;;;;;;;;;;26.72;57.49;100350.63;7317168;19;131365;-33
2022/08/09 03:24:22;;;;;;;;;;;;;;;26.73;57.15;100332.00;7316510;19;129988;-32
2022/08/09 03:26:47;;;;;;;;;;;;;;;26.88;56.99;100351.56;7316768;19;128919;-36
2022/08/09 03:29:14;;;;;;;;;;;;;;;26.84;57.37;100344.94;7316538;19;129616;-34
2022/08/09 03:31:40;;;;;;;;;;;;;;;26.90;57.09;100349.59;7313228;19;129630;-35
2022/08/09 03:34:06;;;;;;;;;;;;;;;26.92;57.01;100352.91;7315556;19;129357;-34
2022/08/09 03:36:31;;;;;;;;;;;;;;;26.93;57.37;100351.09;7313519;19;129652;-35
2022/08/09 03:38:57;;;;;;;;;;;;;;;26.85;57.61;100341.31;7316244;19;129710;-37
2022/08/09 03:41:22;;;;;;;;;;;;;;;26.94;57.23;100355.38;7313978;19;129344;-33
2022/08/09 03:43:47;;;;;;;;;;;;;;;26.95;57.43;100357.03;7316190;19;130508;-38
2022/08/09 03:46:13;;;;;;;;;;;;;;;26.96;57.34;100357.88;7315680;19;130292;-32
2022/08/09 03:48:39;;;;;;;;;;;;;;;26.94;57.59;100356.22;7316697;19;129642;-35
2022/08/09 03:51:07;;;;;;;;;;;;;;;26.96;57.67;100355.25;7314504;19;129535;-32
2022/08/09 03:53:34;;;;;;;;;;;;;;;26.92;57.07;100358.16;7314068;19;129612;-34
2022/08/09 03:55:59;;;;;;;;;;;;;;;26.93;57.22;100359.00;7312406;19;129699;-32
2022/08/09 03:58:24;;;;;;;;;;;;;;;26.93;57.44;100365.13;7315167;19;129643;-35
2022/08/09 04:00:50;;;;;;;;;;;;;;;26.96;57.50;100363.16;7312558;19;129140;-37
2022/08/09 04:03:15;;;;;;;;;;;;;;;26.29;51.59;100364.59;7314593;19;128961;-33
2022/08/09 04:05:41;;;;;;;;;;;;;;;26.05;51.72;100369.63;7315431;19;129514;-37
2022/08/09 04:08:06;;;;;;;;;;;;;;;26.48;56.70;100369.69;7315744;19;129200;-39
2022/08/09 04:10:31;;;;;;;;;;;;;;;26.68;57.03;100376.50;7313216;19;129612;-30
2022/08/09 04:12:59;;;;;;;;;;;;;;;26.78;56.51;100371.94;7314502;19;128997;-34
2022/08/09 04:15:24;;;;;;;;;;;;;;;26.86;57.15;100373.78;7314561;19;128987;-36
2022/08/09 04:17:50;;;;;;;;;;;;;;;26.89;56.94;100376.97;7315173;19;129118;-32
2022/08/09 04:20:16;;;;;;;;;;;;;;;26.89;56.67;100369.03;7313487;19;130146;-34
2022/08/09 04:22:41;;;;;;;;;;;;;;;26.93;56.67;100375.69;7315245;19;129044;-31
2022/08/09 04:25:07;;;;;;;;;;;;;;;26.94;56.65;100377.31;7315055;19;129079;-35
2022/08/09 04:27:34;;;;;;;;;;;;;;;26.93;56.99;100373.03;7315446;19;130317;-37
2022/08/09 04:30:00;;;;;;;;;;;;;;;26.93;56.94;100386.25;7312347;19;130238;-30
2022/08/09 04:32:28;;;;;;;;;;;;;;;26.94;57.25;100382.59;7314679;19;129265;-31
2022/08/09 04:34:55;;;;;;;;;;;;;;;26.93;57.21;100380.97;7314777;19;129099;-33
2022/08/09 04:37:20;;;;;;;;;;;;;;;26.94;56.71;100376.47;7313036;19;129122;-38
2022/08/09 04:39:45;;;;;;;;;;;;;;;26.96;57.16;100381.63;7312818;19;129175;-37
2022/08/09 04:42:10;;;;;;;;;;;;;;;26.86;57.51;100368.53;7314355;19;128937;-34
2022/08/09 04:44:35;;;;;;;;;;;;;;;26.94;57.38;100387.88;7313101;19;129820;-34
2022/08/09 04:47:01;;;;;;;;;;;;;;;26.91;57.73;100382.91;7314050;19;130057;-38
2022/08/09 04:49:31;;;;;;;;;;;;;;;26.94;57.23;100392.31;7313422;19;129091;-36
2022/08/09 04:51:56;;;;;;;;;;;;;;;26.41;52.35;100388.94;7314768;19;129284;-33
2022/08/09 04:54:22;;;;;;;;;;;;;;;26.08;52.09;100393.03;7315063;19;129378;-34
2022/08/09 04:56:47;;;;;;;;;;;;;;;26.41;56.99;100400.28;7313664;19;129465;-34
2022/08/09 04:59:12;;;;;;;;;;;;;;;26.65;56.63;100400.53;7314137;19;129421;-34
2022/08/09 05:01:37;;;;;;;;;;;;;;;26.75;57.17;100392.53;7311170;19;129341;-36
2022/08/09 05:04:03;;;;;;;;;;;;;;;26.84;56.78;100405.63;7314615;19;128827;-39
2022/08/09 05:06:28;;;;;;;;;;;;;;;26.87;57.13;100396.59;7314093;19;130157;-35
2022/08/09 05:08:56;;;;;;;;;;;;;;;26.89;56.73;100402.53;7312874;19;129632;-38
2022/08/09 05:11:22;;;;;;;;;;;;;;;26.91;57.50;100403.19;7311315;19;129474;-39
2022/08/09 05:13:47;;;;;;;;;;;;;;;26.91;57.10;100406.66;7314681;19;129509;-35
2022/08/09 05:16:12;;;;;;;;;;;;;;;26.86;56.88;100397.53;7313258;19;129468;-35
2022/08/09 05:18:38;;;;;;;;;;;;;;;26.96;57.06;100411.47;7312911;19;129685;-36
2022/08/09 05:21:03;;;;;;;;;;;;;;;26.87;57.11;100394.75;7311802;19;129324;-32
2022/08/09 05:23:29;;;;;;;;;;;;;;;26.94;57.10;100409.00;7314999;19;129175;-36
2022/08/09 05:25:54;;;;;;;;;;;;;;;26.84;57.13;100408.25;7313821;19;129675;-35
2022/08/09 05:28:19;;;;;;;;;;;;;;;26.95;57.60;100420.38;7312997;19;129846;-36
2022/08/09 05:30:45;;;;;;;;;;;;;;;26.94;57.62;100419.56;7312144;19;129062;-35
2022/08/09 05:33:11;;;;;;;;;;;;;;;26.99;57.10;100426.19;7314443;19;128974;-32
2022/08/09 05:35:36;;;;;;;;;;;;;;;26.97;57.27;100425.50;7312713;19;129233;-30
2022/08/09 05:38:01;;;;;;;;;;;;;;;26.98;57.38;100427.16;7312641;19;131501;-33
2022/08/09 05:40:27;;;;;;;;;;;;;;;26.38;51.83;100431.41;7312152;19;128928;-37
2022/08/09 05:42:53;;;;;;;;;;;;;;;25.96;51.30;100410.03;7313355;19;129426;-37
2022/08/09 05:45:18;;;;;;;;;;;;;;;26.47;57.21;100430.50;7311592;19;129404;-34
2022/08/09 05:47:44;;;;;;;;;;;;;;;26.61;56.91;100422.06;7311801;19;129408;-34
2022/08/09 05:50:09;;;;;;;;;;;;;;;26.77;57.28;100431.00;7310624;19;129249;-39
2022/08/09 05:52:34;;;;;;;;;;;;;;;26.83;57.07;100438.28;7312423;19;128893;-34
2022/08/09 05:55:00;;;;;;;;;;;;;;;26.87;57.30;100439.63;7311492;19;129533;-34
2022/08/09 05:57:25;;;;;;;;;;;;;;;26.83;56.59;100417.16;7313736;19;129589;-34
2022/08/09 05:59:50;;;;;;;;;;;;;;;26.91;56.93;100435.69;7317756;19;128872;-38
2022/08/09 06:02:16;;;;;;;;;;;;;;;26.92;57.42;100439.97;7319137;19;129110;-31
2022/08/09 06:04:41;;;;;;;;;;;;;;;26.93;56.53;100441.66;7318002;19;129580;-32
2022/08/09 06:07:06;;;;;;;;;;;;;;;26.91;57.17;100440.97;7318298;19;129218;-36
2022/08/09 06:09:31;;;;;;;;;;;;;;;26.92;57.58;100442.63;7318747;19;128848;-36
2022/08/09 06:11:57;;;;;;;;;;;;;;;26.93;57.61;100439.03;7318013;19;129297;-31
2022/08/09 06:14:22;;;;;;;;;;;;;;;26.96;56.95;100444.97;7317889;19;129264;-34
2022/08/09 06:16:47;;;;;;;;;;;;;;;26.95;57.60;100446.78;7316908;19;129372;-39
2022/08/09 06:19:13;;;;;;;;;;;;;;;26.93;56.92;100441.66;7319073;19;130289;-34
2022/08/09 06:21:39;;;;;;;;;;;;;;;26.93;57.02;100446.94;7315603;19;128917;-34
2022/08/09 06:24:04;;;;;;;;;;;;;;;26.94;57.56;100451.22;7317455;19;130119;-32
2022/08/09 06:26:29;;;;;;;;;;;;;;;26.94;57.36;100448.59;7317998;19;129214;-38
2022/08/09 06:28:56;;;;;;;;;;;;;;;26.45;53.31;100443.84;7317947;19;128743;-33
2022/08/09 06:31:21;;;;;;;;;;;;;;;26.05;51.31;100456.59;7315988;19;129023;-34
2022/08/09 06:33:46;;;;;;;;;;;;;;;26.36;56.92;100455.28;7317632;19;129469;-36
2022/08/09 06:36:12;;;;;;;;;;;;;;;26.61;56.99;100456.38;7316688;19;129247;-38
2022/08/09 06:38:37;;;;;;;;;;;;;;;26.73;57.54;100453.38;7317726;19;129428;-34
2022/08/09 06:41:02;;;;;;;;;;;;;;;26.81;56.67;100455.22;7315048;19;129123;-37
2022/08/09 06:43:28;;;;;;;;;;;;;;;26.85;57.36;100457.44;7317509;19;129484;-32
2022/08/09 06:45:53;;;;;;;;;;;;;;;26.91;57.03;100459.44;7318084;19;129599;-37
2022/08/09 06:48:19;;;;;;;;;;;;;;;26.90;56.94;100460.44;7316928;19;129390;-37
2022/08/09 06:50:44;;;;;;;;;;;;;;;26.93;57.26;100461.94;7315655;19;129134;-37
2022/08/09 06:53:09;;;;;;;;;;;;;;;26.93;57.11;100459.28;7317438;19;130177;-38
2022/08/09 06:55:34;;;;;;;;;;;;;;;26.94;56.99;100456.50;7317288;19;130438;-34
2022/08/09 06:58:00;;;;;;;;;;;;;;;26.94;57.28;100461.78;7314569;19;129519;-35
2022/08/09 07:00:26;;;;;;;;;;;;;;;26.94;56.88;100461.78;7315462;19;129060;-35
2022/08/09 07:02:51;;;;;;;;;;;;;;;26.93;56.89;100465.41;7317494;19;129248;-38
2022/08/09 07:05:17;;;;;;;;;;;;;;;26.93;56.97;100468.06;7317978;19;129116;-33
2022/08/09 07:07:43;;;;;;;;;;;;;;;26.88;57.25;100459.75;7315639;19;129362;-34
2022/08/09 07:10:08;;;;;;;;;;;;;;;26.96;57.15;100466.91;7315646;19;128966;-33
2022/08/09 07:12:33;;;;;;;;;;;;;;;26.95;57.17;100465.25;7317264;19;129091;-38
2022/08/09 07:14:58;;;;;;;;;;;;;;;26.94;57.45;100467.06;7316349;19;129452;-31
2022/08/09 07:17:24;;;;;;;;;;;;;;;26.96;56.95;100466.09;7314962;19;129096;-34
2022/08/09 07:19:49;;;;;;;;;;;;;;;26.13;51.43;100475.13;7316082;19;129134;-31
2022/08/09 07:22:15;;;;;;;;;;;;;;;26.12;54.71;100473.50;7317345;19;129033;-38
2022/08/09 07:24:40;;;;;;;;;;;;;;;26.52;56.40;100479.19;7316740;19;129264;-35
2022/08/09 07:27:06;;;;;;;;;;;;;;;26.69;57.42;100478.38;7316941;19;129040;-34
2022/08/09 07:29:31;;;;;;;;;;;;;;;26.77;57.39;100473.22;7314977;19;129224;-33
2022/08/09 07:31:58;;;;;;;;;;;;;;;26.84;56.47;100476.88;7317448;19;129303;-32
2022/08/09 07:34:23;;;;;;;;;;;;;;;26.89;56.98;100484.34;7316524;19;130890;-34
2022/08/09 07:36:49;;;;;;;;;;;;;;;26.90;57.41;100478.91;7314681;19;128947;-34
2022/08/09 07:39:14;;;;;;;;;;;;;;;26.82;56.75;100468.28;7314915;19;129037;-38
2022/08/09 07:41:39;;;;;;;;;;;;;;;26.90;56.96;100478.91;7313957;19;129683;-30
2022/08/09 07:44:04;;;;;;;;;;;;;;;26.91;56.88;100472.66;7315204;19;129731;-37
2022/08/09 07:46:30;;;;;;;;;;;;;;;26.90;56.97;100471.00;7315342;19;128750;-32
2022/08/09 07:48:55;;;;;;;;;;;;;;;26.90;57.26;100471.00;7316081;19;129727;-34
2022/08/09 07:51:20;;;;;;;;;;;;;;;26.92;57.57;100473.47;7313843;19;129396;-38
2022/08/09 07:53:46;;;;;;;;;;;;;;;26.94;57.41;100472.34;7315297;19;129431;-34
2022/08/09 07:56:12;;;;;;;;;;;;;;;26.94;57.29;100472.34;7314411;19;129428;-33
2022/08/09 07:58:37;;;;;;;;;;;;;;;26.96;57.15;100474.00;7315394;19;129089;-34
2022/08/09 08:01:02;;;;;;;;;;;;;;;26.93;57.08;100465.41;7314036;19;129751;-33
2022/08/09 08:03:28;;;;;;;;;;;;;;;26.94;57.78;100472.34;7315207;19;130299;-33
2022/08/09 08:05:53;;;;;;;;;;;;;;;26.96;57.71;100468.72;7314745;19;128803;-36
2022/08/09 08:08:18;;;;;;;;;;;;;;;26.51;52.75;100464.34;7315454;19;128834;-39
2022/08/09 08:10:44;;;;;;;;;;;;;;;26.06;51.42;100462.72;7313680;19;129923;-34
2022/08/09 08:13:09;;;;;;;;;;;;;;;26.33;56.97;100466.13;7314449;19;130498;-39
2022/08/09 08:15:34;;;;;;;;;;;;;;;26.62;56.75;100465.94;7314069;19;128722;-35
2022/08/09 08:18:00;;;;;;;;;;;;;;;26.72;57.17;100457.00;7313573;19;129255;-34
2022/08/09 08:20:26;;;;;;;;;;;;;;;26.81;56.98;100457.88;7310766;19;129990;-33
2022/08/09 08:22:51;;;;;;;;;;;;;;;26.83;56.86;100459.38;7314246;19;129353;-38
2022/08/09 08:25:16;;;;;;;;;;;;;;;26.86;57.28;100459.06;7313928;19;129077;-35
2022/08/09 08:27:42;;;;;;;;;;;;;;;26.88;57.26;100457.13;7315603;19;129293;-33
2022/08/09 08:30:08;;;;;;;;;;;;;;;26.89;56.72;100458.78;7312462;19;129386;-36
2022/08/09 08:32:33;;;;;;;;;;;;;;;26.89;57.41;100458.78;7313690;19;130234;-36
2022/08/09 08:34:59;;;;;;;;;;;;;;;26.91;57.15;100456.81;7314466;19;128908;-35
2022/08/09 08:37:25;;;;;;;;;;;;;;;26.90;57.00;100460.44;7313148;19;129012;-32
2022/08/09 08:39:50;;;;;;;;;;;;;;;26.90;57.29;100457.81;7312971;19;130535;-34
2022/08/09 08:42:16;;;;;;;;;;;;;;;26.90;57.06;100456.97;7314363;19;130233;-38
2022/08/09 08:44:42;;;;;;;;;;;;;;;26.92;57.42;100460.28;7314479;19;128913;-39
2022/08/09 08:47:08;;;;;;;;;;;;;;;26.91;57.58;100462.09;7314942;19;129490;-35
2022/08/09 08:49:36;;;;;;;;;;;;;;;26.91;57.48;100459.44;7313068;19;130090;-33
2022/08/09 08:52:01;;;;;;;;;;;;;;;26.84;57.46;100450.47;7313753;19;129572;-33
2022/08/09 08:54:27;;;;;;;;;;;;;;;26.94;57.51;100460.94;7314769;19;128872;-38
2022/08/09 08:56:53;;;;;;;;;;;;;;;26.46;52.39;100455.25;7313199;19;129096;-39
2022/08/09 08:59:19;;;;;;;;;;;;;;;25.98;51.74;100444.94;7313360;19;129373;-34
2022/08/09 09:01:45;;;;;;;;;;;;;;;26.34;56.71;100462.53;7311556;19;129414;-33
2022/08/09 09:04:11;;;;;;;;;;;;;;;26.59;57.52;100461.78;7315206;19;128870;-39
2022/08/09 09:06:40;;;;;;;;;;;;;;;26.64;56.87;100443.69;7313867;19;128950;-35
2022/08/09 09:09:06;;;;;;;;;;;;;;;26.80;56.88;100454.41;7312796;19;130407;-32
2022/08/09 09:11:33;;;;;;;;;;;;;;;26.86;56.63;100455.59;7310244;19;129312;-37
2022/08/09 09:14:00;;;;;;;;;;;;;;;26.79;57.48;100444.84;7314003;19;128982;-35
2022/08/09 09:16:27;;;;;;;;;;;;;;;26.89;56.97;100448.22;7312486;19;128704;-32
2022/08/09 09:18:53;;;;;;;;;;;;;;;26.89;56.81;100445.56;7312113;19;130751;-38
2022/08/09 09:21:19;;;;;;;;;;;;;;;26.89;57.09;100453.50;7309902;19;129325;-35
2022/08/09 09:23:45;;;;;;;;;;;;;;;26.89;56.80;100458.78;7313159;19;129169;-35
2022/08/09 09:26:12;;;;;;;;;;;;;;;26.91;57.28;100455.97;7312358;19;128730;-34
2022/08/09 09:28:42;;;;;;;;;;;;;;;26.91;56.76;100458.63;7312418;19;130098;-36
2022/08/09 09:31:11;;;;;;;;;;;;;;;26.91;57.42;100455.97;7310341;19;131300;-35
2022/08/09 09:33:36;;;;;;;;;;;;;;;26.91;57.55;100445.41;7313526;19;129156;-34
2022/08/09 09:36:06;;;;;;;;;;;;;;;26.92;57.47;100444.47;7313462;19;128973;-36
2022/08/09 09:38:42;;;;;;;;;;;;;;;26.92;57.62;100450.53;7312068;19;129708;-37
2022/08/09 09:41:07;;;;;;;;;;;;;;;26.90;56.96;100452.53;7310372;19;130225;-37
2022/08/09 09:43:33;;;;;;;;;;;;;;;26.90;57.28;100456.97;7312360;19;128980;-33
2022/08/09 09:46:01;;;;;;;;;;;;;;;26.87;57.89;100449.38;7313522;19;129136;-34
2022/08/09 09:48:27;;;;;;;;;;;;;;;26.10;51.72;100449.09;7312455;19;130276;-34
2022/08/09 09:50:53;;;;;;;;;;;;;;;26.17;56.25;100444.03;7310712;19;130252;-32
2022/08/09 09:53:22;;;;;;;;;;;;;;;26.51;57.37;100448.50;7312958;19;129377;-35
2022/08/09 09:56:01;;;;;;;;;;;;;;;26.67;57.31;100443.44;7312114;19;128821;-38
2022/08/09 09:58:42;;;;;;;;;;;;;;;26.78;57.23;100434.44;7310398;19;129459;-40
2022/08/09 10:01:15;;;;;;;;;;;;;;;26.84;56.92;100444.41;7310892;19;130976;-33
2022/08/09 10:03:45;;;;;;;;;;;;;;;26.87;57.11;100439.63;7312377;19;129573;-34
2022/08/09 10:06:11;;;;;;;;;;;;;;;26.87;57.21;100434.34;7310873;19;129286;-32
2022/08/09 10:08:36;;;;;;;;;;;;;;;26.81;57.21;100418.28;7310970;19;129573;-33
2022/08/09 10:11:34;;;;;;;;;;;;;;;26.87;57.60;100434.34;7310559;19;129597;-34
2022/08/09 10:14:00;;;;;;;;;;;;;;;26.88;56.82;100435.16;7309955;19;129790;-40
2022/08/09 10:16:28;;;;;;;;;;;;;;;26.89;57.60;100424.47;7308136;19;129444;-41
2022/08/09 10:18:54;;;;;;;;;;;;;;;26.89;57.67;100432.38;7310332;19;129337;-34
2022/08/09 10:21:19;;;;;;;;;;;;;;;26.87;57.53;100421.13;7308668;19;130503;-36
2022/08/09 10:23:45;;;;;;;;;;;;;;;26.90;57.75;100428.78;7312322;19;128889;-38
2022/08/09 10:26:11;;;;;;;;;;;;;;;26.89;57.49;100421.03;7310649;19;129494;-38
2022/08/09 10:28:37;;;;;;;;;;;;;;;26.86;57.37;100422.13;7310538;19;129281;-37
2022/08/09 10:31:02;;;;;;;;;;;;;;;26.75;57.83;100408.34;7308829;19;129717;-29
2022/08/09 10:33:28;;;;;;;;;;;;;;;26.83;57.54;100417.16;7312643;19;129347;-32
2022/08/09 10:35:53;;;;;;;;;;;;;;;26.81;57.71;100423.56;7310969;19;128950;-34
2022/08/09 10:38:19;;;;;;;;;;;;;;;26.07;51.61;100423.03;7307968;19;129854;-35
2022/08/09 10:40:44;;;;;;;;;;;;;;;26.19;56.36;100429.75;7309325;19;130275;-35
2022/08/09 10:43:11;;;;;;;;;;;;;;;26.50;57.09;100436.31;7315181;19;129196;-36
2022/08/09 10:45:36;;;;;;;;;;;;;;;26.63;56.86;100423.56;7317960;19;129253;-34
2022/08/09 10:48:06;;;;;;;;;;;;;;;26.71;57.03;100428.94;7317392;19;129380;-38
2022/08/09 10:51:05;;;;;;;;;;;;;;;26.75;57.13;100430.31;7316130;19;129491;-34
2022/08/09 10:53:37;;;;;;;;;;;;;;;26.78;57.15;100432.63;7317204;19;129382;-35
2022/08/09 10:56:22;;;;;;;;;;;;;;;26.81;56.95;100424.41;7317072;19;129012;-38
2022/08/09 10:58:48;;;;;;;;;;;;;;;26.83;57.25;100426.88;7316506;19;129354;-37
2022/08/09 11:01:31;;;;;;;;;;;;;;;26.83;57.15;100422.44;7316291;19;129166;-35
2022/08/09 11:04:09;;;;;;;;;;;;;;;26.84;57.41;100418.00;7315971;19;128943;-40
2022/08/09 11:06:38;;;;;;;;;;;;;;;26.83;57.33;100417.16;7315217;19;129492;-34
2022/08/09 11:09:04;;;;;;;;;;;;;;;26.85;57.45;100427.56;7316500;19;130010;-32
2022/08/09 11:11:48;;;;;;;;;;;;;;;26.83;57.48;100427.72;7314995;19;129106;-35
2022/08/09 11:14:36;;;;;;;;;;;;;;;26.84;57.88;100424.09;7310843;19;129407;-36
2022/08/09 11:17:02;;;;;;;;;;;;;;;26.84;57.41;100424.09;7315157;19;129294;-35
2022/08/09 11:19:46;;;;;;;;;;;;;;;26.82;57.40;100423.41;7316934;19;129735;-38
2022/08/09 11:22:11;;;;;;;;;;;;;;;26.83;57.92;100416.34;7316870;19;129377;-34
2022/08/09 11:24:55;;;;;;;;;;;;;;;26.82;58.04;100420.78;7315371;19;129431;-35
2022/08/09 11:27:27;;;;;;;;;;;;;;;26.28;51.78;100420.94;7316143;19;129292;-37
2022/08/09 11:29:53;;;;;;;;;;;;;;;25.93;52.09;100399.78;7315040;19;129758;-37
2022/08/09 11:32:37;;;;;;;;;;;;;;;26.39;57.28;100417.25;7315954;19;129342;-35
2022/08/09 11:35:05;;;;;;;;;;;;;;;26.60;57.42;100410.69;7315925;19;129124;-32
2022/08/09 11:37:31;;;;;;;;;;;;;;;26.70;56.70;100406.19;7315867;19;129102;-38
2022/08/09 11:40:01;;;;;;;;;;;;;;;26.76;57.29;100407.38;7314892;19;129669;-32
2022/08/09 11:42:39;;;;;;;;;;;;;;;26.76;57.25;100400.28;7316190;19;131163;-33
2022/08/09 11:45:16;;;;;;;;;;;;;;;26.78;57.11;100403.59;7315811;19;129142;-31
2022/08/09 11:48:02;;;;;;;;;;;;;;;26.71;56.92;100394.66;7315335;19;129049;-37
2022/08/09 11:50:28;;;;;;;;;;;;;;;26.79;57.41;100405.25;7313739;19;129682;-38
2022/08/09 11:52:59;;;;;;;;;;;;;;;26.82;56.96;100406.78;7316317;19;130356;-35
2022/08/09 11:55:36;;;;;;;;;;;;;;;26.80;57.60;100401.66;7315043;19;129173;-36
2022/08/09 11:58:14;;;;;;;;;;;;;;;26.80;56.96;100400.81;7312884;19;129305;-33
2022/08/09 12:00:49;;;;;;;;;;;;;;;26.80;57.90;100399.00;7314033;19;129217;-34
2022/08/09 12:03:15;;;;;;;;;;;;;;;26.76;57.86;100394.16;7314882;19;129172;-33
2022/08/09 12:05:41;;;;;;;;;;;;;;;26.84;57.18;100404.81;7315742;19;128919;-33
2022/08/09 12:08:08;;;;;;;;;;;;;;;26.82;57.50;100404.94;7315274;19;129311;-36
2022/08/09 12:10:33;;;;;;;;;;;;;;;26.83;57.68;100396.06;7313836;19;129942;-35
2022/08/09 12:12:59;;;;;;;;;;;;;;;26.85;57.76;100402.03;7314045;19;130339;-33
2022/08/09 12:15:26;;;;;;;;;;;;;;;26.84;57.85;100396.91;7314709;19;128852;-35
2022/08/09 12:17:52;;;;;;;;;;;;;;;26.10;51.56;100399.00;7313123;19;129216;-35
2022/08/09 12:20:17;;;;;;;;;;;;;;;26.11;56.38;100389.28;7312667;19;129452;-33
2022/08/09 12:22:44;;;;;;;;;;;;;;;26.47;56.80;100389.16;7314524;19;130004;-33
2022/08/09 12:25:18;;;;;;;;;;;;;;;26.63;56.66;100391.06;7314833;19;129059;-34
2022/08/09 12:27:44;;;;;;;;;;;;;;;26.71;57.33;100399.09;7316065;19;129170;-34